Terminal Aerodrome Forecast
Issued by NWS Norman, OK

Home | Current Version | Previous Version | Text Only | Print | Product List | Glossary On
Versions: 1 2 3 4 5 6 7 8 9 10 11 12 13
000
FTUS44 KOUN 280531
TAFOKC
TAF
KOKC 280531Z 2806/2906 01019KT P6SM SCT030 OVC060
     FM280700 36016KT P6SM BKN025
     FM281600 36011KT P6SM FEW250=

USA.gov is the U.S. government's official web portal to all federal, state and local government web resources and services.